Accueil
METAR-TAF:

METAR-TAF

Aéroports :

Yamagata, Japon

latitude: 38-25N, longitude: 140-22E, altitude: 105 m

Observation

Le bulletin a été fait il y a 4 heures et 45 minutes, à 10:00 UTC
Vent 7 kt de est/nord-est, variant entre nord et est
Température 13°C
Humidité 58%
Pression 1012 hPa
Visibilité 10 km ou plus
Quelques nuages à une hauteur de 5000 ft
Nuages épars à une hauteur de 6000 ft
Nuages fragmentés à une hauteur de 7000 ft
faibles averses de pluie

METAR: RJSC 081000Z 06007KT 010V100 9999 -SHRA FEW050 SCT060 BKN070 13/05 Q1012

Heure: 23:45 (14:45 UTC)


TAF: absent

Observations et prévisions météorologiques de plus de 4000 aéroports (messages METAR et TAF).

Les stations disponibles sont représentées par des disques jaunes et rouges sur la carte.

Passer la souris dessus pour voir le nom de la station.

Cliquer dessus pour voir les observations et prévisions météorologiques.

Pour changer de carte: cliquez sur les boutons verts avec une croix noire pour zoomer, sur le bouton vert avec un tiret pour effectuer un zoom arrière, ou sur les flèches vertes pour les cartes adjacentes.


METAR-TAF: